createdAt,value
2019-04-30T00:01:58.994Z,12.50
2019-04-30T00:04:40.259Z,12.50
2019-04-30T00:07:05.714Z,12.10
2019-04-30T00:09:35.706Z,12.60
2019-04-30T00:12:05.531Z,12.30
2019-04-30T00:14:40.091Z,12.60
2019-04-30T00:17:03.564Z,12.30
2019-04-30T00:19:32.579Z,12.30
2019-04-30T00:22:00.718Z,12.80
2019-04-30T00:24:28.577Z,12.50
2019-04-30T00:26:56.844Z,12.80
2019-04-30T00:29:30.456Z,12.70
2019-04-30T00:31:59.248Z,12.70
2019-04-30T00:34:25.031Z,12.50
2019-04-30T00:36:53.139Z,12.60
2019-04-30T00:39:21.007Z,12.30
2019-04-30T00:41:49.183Z,12.30
2019-04-30T00:44:19.927Z,12.50
2019-04-30T00:46:48.585Z,12.50
2019-04-30T00:49:22.910Z,12.30
2019-04-30T00:51:49.824Z,12.30
2019-04-30T00:54:17.669Z,12.40
2019-04-30T00:56:45.738Z,12.50
2019-04-30T00:59:15.075Z,12.50
2019-04-30T01:01:58.563Z,11.90
2019-04-30T01:04:34.946Z,12.30
2019-04-30T01:07:07.168Z,12.40
2019-04-30T01:09:33.106Z,12.50
2019-04-30T01:12:01.000Z,12.70
2019-04-30T01:14:32.018Z,12.60
2019-04-30T01:16:59.415Z,12.30
2019-04-30T01:19:30.618Z,12.40
2019-04-30T01:21:59.371Z,12.10
2019-04-30T01:24:31.686Z,12.60
2019-04-30T01:27:06.582Z,12.40
2019-04-30T01:29:37.706Z,12.40
2019-04-30T01:32:00.367Z,12.00
2019-04-30T01:34:29.447Z,12.20
2019-04-30T01:36:58.917Z,12.00
2019-04-30T01:39:28.455Z,12.20
2019-04-30T01:42:07.951Z,12.50
2019-04-30T01:44:35.707Z,12.30
2019-04-30T01:47:03.567Z,12.20
2019-04-30T01:49:41.789Z,12.00
2019-04-30T01:52:01.309Z,12.10
2019-04-30T01:54:29.284Z,12.40
2019-04-30T01:57:16.756Z,12.20
2019-04-30T02:00:05.011Z,12.10
2019-04-30T02:02:35.175Z,11.90
2019-04-30T02:05:03.921Z,12.20
2019-04-30T02:07:31.885Z,12.30
2019-04-30T02:09:59.780Z,12.60
2019-04-30T02:12:29.703Z,12.40
2019-04-30T02:14:59.744Z,12.30
2019-04-30T02:17:29.269Z,12.00
2019-04-30T02:19:59.267Z,11.90
2019-04-30T02:22:28.817Z,11.80
2019-04-30T02:24:58.545Z,12.60
2019-04-30T02:27:26.673Z,12.40
2019-04-30T02:29:54.640Z,12.10
2019-04-30T02:32:22.545Z,12.30
2019-04-30T02:34:59.827Z,12.30
2019-04-30T02:37:30.746Z,12.40
2019-04-30T02:40:00.806Z,12.60
2019-04-30T02:42:29.689Z,12.50
2019-04-30T02:44:59.996Z,12.70
2019-04-30T02:47:32.106Z,12.30
2019-04-30T02:50:14.024Z,12.60
2019-04-30T02:52:33.291Z,12.20
2019-04-30T02:55:03.001Z,12.10
2019-04-30T02:57:30.984Z,12.70
2019-04-30T03:00:09.666Z,12.40
2019-04-30T03:02:39.173Z,12.60
2019-04-30T03:05:12.882Z,12.40
2019-04-30T03:07:37.270Z,12.60
2019-04-30T03:10:06.047Z,12.10
2019-04-30T03:12:34.126Z,12.60
2019-04-30T03:15:02.211Z,12.30
2019-04-30T03:18:01.686Z,12.40
2019-04-30T03:20:41.868Z,12.90
2019-04-30T03:23:10.141Z,12.40
2019-04-30T03:25:40.365Z,12.20
2019-04-30T03:28:09.744Z,12.30
2019-04-30T03:30:41.677Z,12.50
2019-04-30T03:33:12.202Z,12.30
2019-04-30T03:35:46.852Z,12.60
2019-04-30T03:38:09.463Z,13.00
2019-04-30T03:40:40.212Z,12.80
2019-04-30T03:43:06.876Z,12.80
2019-04-30T03:45:35.031Z,12.60
2019-04-30T03:48:02.953Z,12.90
2019-04-30T03:50:48.290Z,12.60
2019-04-30T03:53:00.848Z,12.80
2019-04-30T03:55:29.877Z,12.50
2019-04-30T03:58:00.158Z,12.80
2019-04-30T04:01:00.436Z,12.90
2019-04-30T04:03:31.686Z,12.80
2019-04-30T04:06:22.834Z,12.80
2019-04-30T04:08:55.415Z,12.60
2019-04-30T04:11:29.757Z,13.10
2019-04-30T04:13:59.724Z,12.90
2019-04-30T04:16:29.343Z,12.60
2019-04-30T04:18:59.471Z,12.60
2019-04-30T04:21:29.984Z,12.90
2019-04-30T04:23:57.244Z,13.20
2019-04-30T04:26:25.175Z,13.10
2019-04-30T04:28:53.098Z,12.00
2019-04-30T04:31:20.976Z,12.60
2019-04-30T04:33:52.314Z,12.60
2019-04-30T04:36:19.976Z,12.60
2019-04-30T04:38:50.608Z,12.90
2019-04-30T04:41:19.831Z,12.20
2019-04-30T04:43:50.090Z,12.30
2019-04-30T04:46:20.585Z,12.30
2019-04-30T04:48:49.373Z,12.30
2019-04-30T04:51:31.294Z,12.40
2019-04-30T04:53:49.797Z,12.10
2019-04-30T04:56:19.098Z,11.80
2019-04-30T04:58:49.965Z,11.90
2019-04-30T05:01:20.189Z,12.00
2019-04-30T05:03:49.086Z,12.30
2019-04-30T05:06:20.703Z,12.20
2019-04-30T05:08:47.033Z,12.00
2019-04-30T05:11:14.936Z,12.00
2019-04-30T05:13:42.873Z,12.60
2019-04-30T05:16:12.723Z,12.60
2019-04-30T05:18:40.909Z,12.00
2019-04-30T05:21:08.980Z,12.40
2019-04-30T05:23:42.336Z,12.40
2019-04-30T05:26:11.036Z,12.90
2019-04-30T05:28:39.371Z,12.40
2019-04-30T05:31:08.760Z,12.40
2019-04-30T05:33:39.036Z,12.80
2019-04-30T05:36:09.194Z,12.90
2019-04-30T05:38:39.188Z,12.80
2019-04-30T05:41:07.151Z,12.70
2019-04-30T05:43:35.092Z,12.30
2019-04-30T05:46:03.109Z,12.40
2019-04-30T05:48:31.045Z,12.40
2019-04-30T05:50:59.237Z,12.50
2019-04-30T05:53:28.667Z,13.10
2019-04-30T05:55:56.869Z,12.50
2019-04-30T05:58:24.782Z,13.30
2019-04-30T06:00:52.697Z,12.70
2019-04-30T06:03:29.824Z,13.20
2019-04-30T06:05:50.530Z,13.40
2019-04-30T06:08:20.431Z,12.70
2019-04-30T06:11:09.372Z,12.90
2019-04-30T06:13:59.715Z,12.90
2019-04-30T06:16:29.806Z,12.40
2019-04-30T06:18:58.510Z,13.40
2019-04-30T06:21:26.477Z,13.50
2019-04-30T06:23:55.465Z,12.90
2019-04-30T06:26:23.512Z,13.20
2019-04-30T06:28:51.689Z,13.20
2019-04-30T06:31:31.681Z,13.30
2019-04-30T06:33:49.491Z,13.30
2019-04-30T06:36:19.059Z,13.20
2019-04-30T06:38:48.945Z,13.10
2019-04-30T06:41:17.114Z,13.40
2019-04-30T06:43:45.118Z,13.60
2019-04-30T06:46:13.116Z,13.40
2019-04-30T06:48:41.905Z,13.90
2019-04-30T06:51:09.958Z,13.60
2019-04-30T06:53:39.168Z,13.60
2019-04-30T06:56:08.907Z,13.40
2019-04-30T06:58:38.863Z,13.60
2019-04-30T07:01:09.489Z,13.50
2019-04-30T07:03:38.859Z,13.50
2019-04-30T07:06:08.400Z,13.10
2019-04-30T07:08:59.650Z,13.90
2019-04-30T07:11:31.684Z,14.30
2019-04-30T07:14:00.115Z,13.80
2019-04-30T07:16:29.869Z,13.70
2019-04-30T07:18:58.598Z,13.90
2019-04-30T07:21:26.748Z,14.10
2019-04-30T07:23:54.654Z,14.10
2019-04-30T07:26:24.362Z,13.70
2019-04-30T07:28:55.330Z,13.80
2019-04-30T07:31:22.467Z,13.90
2019-04-30T07:33:53.711Z,14.20
2019-04-30T07:36:20.442Z,14.00
2019-04-30T07:38:54.420Z,13.60
2019-04-30T07:41:19.014Z,14.30
2019-04-30T07:43:49.415Z,13.60
2019-04-30T07:46:17.225Z,14.40
2019-04-30T07:48:45.166Z,14.90
2019-04-30T07:51:13.900Z,14.90
2019-04-30T07:53:42.220Z,15.40
2019-04-30T07:56:24.414Z,14.50
2019-04-30T07:58:40.102Z,14.30
2019-04-30T08:01:10.366Z,14.30
2019-04-30T08:03:49.983Z,14.90
2019-04-30T08:06:21.980Z,14.50
2019-04-30T08:08:50.703Z,14.90
2019-04-30T08:11:25.815Z,15.10
2019-04-30T08:13:50.021Z,15.10
2019-04-30T08:16:18.736Z,14.10
2019-04-30T08:18:46.875Z,14.70
2019-04-30T08:21:14.842Z,14.70
2019-04-30T08:23:42.803Z,15.20
2019-04-30T08:26:10.810Z,15.30
2019-04-30T08:28:38.829Z,14.60
2019-04-30T08:31:08.819Z,14.70
2019-04-30T08:33:36.584Z,14.70
2019-04-30T08:36:04.506Z,14.40
2019-04-30T08:38:32.416Z,15.00
2019-04-30T08:41:00.846Z,14.30
2019-04-30T08:43:29.319Z,15.20
2019-04-30T08:45:59.367Z,14.90
2019-04-30T08:48:43.654Z,15.70
2019-04-30T08:50:59.146Z,16.10
2019-04-30T08:53:32.493Z,15.20
2019-04-30T08:55:59.210Z,16.10
2019-04-30T08:58:29.256Z,15.50
2019-04-30T09:00:58.742Z,15.40
2019-04-30T09:03:26.823Z,14.80
2019-04-30T09:06:05.165Z,15.00
2019-04-30T09:08:33.719Z,16.10
2019-04-30T09:11:01.642Z,16.40
2019-04-30T09:13:29.662Z,16.00
2019-04-30T09:15:59.354Z,16.00
2019-04-30T09:18:29.231Z,16.30
2019-04-30T09:21:04.200Z,15.40
2019-04-30T09:23:40.565Z,16.00
2019-04-30T09:25:58.603Z,15.50
2019-04-30T09:28:26.869Z,15.90
2019-04-30T09:30:54.794Z,15.90
2019-04-30T09:33:22.808Z,15.30
2019-04-30T09:35:50.735Z,15.90
2019-04-30T09:38:19.575Z,15.50
2019-04-30T09:40:47.716Z,16.00
2019-04-30T09:43:15.606Z,16.20
2019-04-30T09:45:43.588Z,16.10
2019-04-30T09:48:11.608Z,16.30
2019-04-30T09:50:39.869Z,17.00
2019-04-30T09:53:11.467Z,15.70
2019-04-30T09:55:40.569Z,17.10
2019-04-30T09:58:14.887Z,15.90
2019-04-30T10:00:39.305Z,16.40
2019-04-30T10:03:09.725Z,16.80
2019-04-30T10:05:39.031Z,16.90
2019-04-30T10:08:06.904Z,16.70
2019-04-30T10:10:42.126Z,16.60
2019-04-30T10:13:10.111Z,17.20
2019-04-30T10:15:50.202Z,16.30
2019-04-30T10:18:18.193Z,17.80
2019-04-30T10:20:46.306Z,17.00
2019-04-30T10:23:14.303Z,17.80
2019-04-30T10:25:42.174Z,17.20
2019-04-30T10:28:10.361Z,16.40
2019-04-30T10:30:38.613Z,17.70
2019-04-30T10:33:06.806Z,17.70
2019-04-30T10:35:34.736Z,16.90
2019-04-30T10:38:02.955Z,17.30
2019-04-30T10:40:30.958Z,17.20
2019-04-30T10:42:59.160Z,18.50
2019-04-30T10:45:28.811Z,17.40
2019-04-30T10:47:59.147Z,18.20
2019-04-30T10:50:27.155Z,17.20
2019-04-30T10:52:55.177Z,18.60
2019-04-30T10:55:24.065Z,18.30
2019-04-30T10:57:52.084Z,17.50
2019-04-30T11:00:35.378Z,17.90
2019-04-30T11:03:03.757Z,18.20
2019-04-30T11:05:31.755Z,18.30
2019-04-30T11:07:59.800Z,18.30
2019-04-30T11:10:29.537Z,17.50
2019-04-30T11:12:57.651Z,18.30
2019-04-30T11:15:25.648Z,17.80
2019-04-30T11:17:53.810Z,18.40
2019-04-30T11:20:22.412Z,18.00
2019-04-30T11:22:50.699Z,17.80
2019-04-30T11:25:20.484Z,17.80
2019-04-30T11:27:50.610Z,18.50
2019-04-30T11:30:23.740Z,18.40
2019-04-30T11:32:49.656Z,18.00
2019-04-30T11:35:20.733Z,18.90
2019-04-30T11:37:48.854Z,19.50
2019-04-30T11:40:31.733Z,18.70
2019-04-30T11:42:54.706Z,19.20
2019-04-30T11:45:30.464Z,19.30
2019-04-30T11:47:59.049Z,19.90
2019-04-30T11:50:30.114Z,18.80
2019-04-30T11:53:13.994Z,18.30
2019-04-30T11:55:29.170Z,18.80
2019-04-30T11:57:59.172Z,19.60
2019-04-30T12:00:33.295Z,18.20
2019-04-30T12:03:01.459Z,19.00
2019-04-30T12:05:29.486Z,19.60
2019-04-30T12:08:19.439Z,19.80
2019-04-30T12:10:54.139Z,19.70
2019-04-30T12:13:26.456Z,19.70
2019-04-30T12:15:55.087Z,19.50
2019-04-30T12:18:23.050Z,20.50
2019-04-30T12:20:51.112Z,19.90
2019-04-30T12:23:19.362Z,19.10
2019-04-30T12:25:49.299Z,20.00
2019-04-30T12:28:19.418Z,20.10
2019-04-30T12:30:48.955Z,19.00
2019-04-30T12:33:19.149Z,19.70
2019-04-30T12:35:51.066Z,19.40
2019-04-30T12:38:18.975Z,20.00
2019-04-30T12:40:46.900Z,20.00
2019-04-30T12:43:16.070Z,19.90
2019-04-30T12:45:44.234Z,20.00
2019-04-30T12:48:20.037Z,19.20
2019-04-30T12:51:20.037Z,20.30
2019-04-30T12:54:07.730Z,19.10
2019-04-30T12:56:58.350Z,20.40
2019-04-30T12:59:26.547Z,20.70
2019-04-30T13:01:55.801Z,20.90
2019-04-30T13:04:23.872Z,20.70
2019-04-30T13:06:52.498Z,19.80
2019-04-30T13:09:21.318Z,20.10
2019-04-30T13:11:50.790Z,19.60
2019-04-30T13:14:20.217Z,19.90
2019-04-30T13:16:49.056Z,20.40
2019-04-30T13:19:17.020Z,21.00
2019-04-30T13:21:45.025Z,21.70
2019-04-30T13:24:13.223Z,20.70
2019-04-30T13:26:41.557Z,20.50
2019-04-30T13:29:15.395Z,20.80
2019-04-30T13:31:43.495Z,20.50
2019-04-30T13:34:31.151Z,20.00
2019-04-30T13:37:00.605Z,21.30
2019-04-30T13:39:33.981Z,20.60
2019-04-30T13:42:20.728Z,21.80
2019-04-30T13:44:49.395Z,21.70
2019-04-30T13:47:19.186Z,23.10
2019-04-30T13:49:49.402Z,21.80
2019-04-30T13:52:17.249Z,21.50
2019-04-30T13:54:45.237Z,22.70
2019-04-30T13:57:13.512Z,22.70
2019-04-30T13:59:41.601Z,22.20
2019-04-30T14:02:09.681Z,23.00
2019-04-30T14:04:51.309Z,23.00
2019-04-30T14:07:39.984Z,22.40
2019-04-30T14:10:09.879Z,23.00
2019-04-30T14:12:42.619Z,23.70
2019-04-30T14:15:15.164Z,23.10
2019-04-30T14:17:43.075Z,23.90
2019-04-30T14:20:11.357Z,24.10
2019-04-30T14:22:39.305Z,22.40
2019-04-30T14:25:07.624Z,22.70
2019-04-30T14:27:48.519Z,22.80
2019-04-30T14:30:09.207Z,23.20
2019-04-30T14:32:36.922Z,23.30
2019-04-30T14:35:05.367Z,23.70
2019-04-30T14:37:33.489Z,22.50
2019-04-30T14:40:04.116Z,24.90
2019-04-30T14:42:34.882Z,24.50
2019-04-30T14:45:15.447Z,23.50
2019-04-30T14:47:54.825Z,23.70
2019-04-30T14:50:23.335Z,23.50
2019-04-30T14:53:07.448Z,21.90
2019-04-30T14:55:45.781Z,23.10
2019-04-30T14:58:39.575Z,22.50
2019-04-30T15:01:14.193Z,23.90
2019-04-30T15:03:42.294Z,24.30
2019-04-30T15:06:10.196Z,23.10
2019-04-30T15:08:39.424Z,24.90
2019-04-30T15:11:09.058Z,24.00
2019-04-30T15:13:38.898Z,23.20
2019-04-30T15:16:07.253Z,24.80
2019-04-30T15:18:35.260Z,24.00
2019-04-30T15:21:04.304Z,24.90
2019-04-30T15:24:01.377Z,23.70
2019-04-30T15:26:28.904Z,24.00
2019-04-30T15:29:00.244Z,23.30
2019-04-30T15:31:29.633Z,22.00
2019-04-30T15:34:06.960Z,22.10
2019-04-30T15:36:34.940Z,23.70
2019-04-30T15:39:10.113Z,24.40
2019-04-30T15:41:38.303Z,22.10
2019-04-30T15:44:06.494Z,22.10
2019-04-30T15:46:34.539Z,22.20
2019-04-30T15:49:02.517Z,20.40
2019-04-30T15:51:30.562Z,20.50
2019-04-30T15:54:00.093Z,21.30
2019-04-30T15:56:35.288Z,20.70
2019-04-30T15:59:16.791Z,20.80
2019-04-30T16:01:49.268Z,20.30
2019-04-30T16:04:20.867Z,20.50
2019-04-30T16:06:49.226Z,20.20
2019-04-30T16:09:28.534Z,20.40
2019-04-30T16:12:20.047Z,20.20
2019-04-30T16:14:46.954Z,20.70
2019-04-30T16:17:22.146Z,20.70
2019-04-30T16:19:50.210Z,20.10
2019-04-30T16:22:19.174Z,19.90
2019-04-30T16:24:49.487Z,20.40
2019-04-30T16:27:19.170Z,20.50
2019-04-30T16:29:49.781Z,20.10
2019-04-30T16:32:18.841Z,20.40
2019-04-30T16:34:47.002Z,19.80
2019-04-30T16:37:15.190Z,20.70
2019-04-30T16:39:43.150Z,19.90
2019-04-30T16:42:11.116Z,19.90
2019-04-30T16:44:39.299Z,20.10
2019-04-30T16:47:16.034Z,20.20
2019-04-30T16:49:38.771Z,20.20
2019-04-30T16:52:09.191Z,20.10
2019-04-30T16:54:39.520Z,20.80
2019-04-30T16:57:10.097Z,20.80
2019-04-30T16:59:41.766Z,21.00
2019-04-30T17:02:10.935Z,20.30
2019-04-30T17:04:49.397Z,19.90
2019-04-30T17:07:39.688Z,20.20
2019-04-30T17:10:18.720Z,20.60
2019-04-30T17:13:18.893Z,20.70
2019-04-30T17:15:47.486Z,20.60
2019-04-30T17:18:15.473Z,20.70
2019-04-30T17:20:43.440Z,20.00
2019-04-30T17:23:11.648Z,20.20
2019-04-30T17:25:39.891Z,19.50
2019-04-30T17:28:09.166Z,20.20
2019-04-30T17:30:39.170Z,20.10
2019-04-30T17:33:09.525Z,20.00
2019-04-30T17:35:38.757Z,19.90
2019-04-30T17:38:08.090Z,19.60
2019-04-30T17:40:36.481Z,20.00
2019-04-30T17:43:04.671Z,20.00
2019-04-30T17:45:33.637Z,19.50
2019-04-30T17:48:01.674Z,20.10
2019-04-30T17:50:29.984Z,20.10
2019-04-30T17:53:00.511Z,20.70
2019-04-30T17:55:29.155Z,20.30
2019-04-30T17:57:58.574Z,20.30
2019-04-30T18:00:29.323Z,20.00
2019-04-30T18:02:57.737Z,18.90
2019-04-30T18:05:25.633Z,19.40
2019-04-30T18:07:53.546Z,19.40
2019-04-30T18:10:23.177Z,19.30
2019-04-30T18:12:51.163Z,19.00
2019-04-30T18:15:21.790Z,19.10
2019-04-30T18:18:04.214Z,19.40
2019-04-30T18:20:39.213Z,19.30
2019-04-30T18:23:39.239Z,18.90
2019-04-30T18:26:15.360Z,18.40
2019-04-30T18:28:43.474Z,18.40
2019-04-30T18:31:12.793Z,18.10
2019-04-30T18:33:42.614Z,18.50
2019-04-30T18:36:11.210Z,18.40
2019-04-30T18:38:39.295Z,18.00
2019-04-30T18:41:09.336Z,18.50
2019-04-30T18:43:38.553Z,18.40
2019-04-30T18:46:10.593Z,18.10
2019-04-30T18:48:39.346Z,18.00
2019-04-30T18:51:23.499Z,18.20
2019-04-30T18:53:39.754Z,17.40
2019-04-30T18:56:12.342Z,17.70
2019-04-30T18:58:42.232Z,17.90
2019-04-30T19:01:09.343Z,17.80
2019-04-30T19:03:39.097Z,17.70
2019-04-30T19:06:22.508Z,17.50
2019-04-30T19:08:58.711Z,17.60
2019-04-30T19:11:40.190Z,17.70
2019-04-30T19:14:26.760Z,17.30
2019-04-30T19:17:29.979Z,17.20
2019-04-30T19:20:18.791Z,16.90
2019-04-30T19:22:47.019Z,16.90
2019-04-30T19:25:15.019Z,16.90
2019-04-30T19:27:43.291Z,17.10
2019-04-30T19:30:11.710Z,16.80
2019-04-30T19:32:39.803Z,17.00
2019-04-30T19:35:09.056Z,17.00
2019-04-30T19:37:40.038Z,16.70
2019-04-30T19:40:18.985Z,16.50
2019-04-30T19:42:50.314Z,16.50
2019-04-30T19:45:17.308Z,16.70
2019-04-30T19:47:45.717Z,16.50
2019-04-30T19:50:14.309Z,16.50
2019-04-30T19:52:42.556Z,16.60
2019-04-30T19:55:10.978Z,16.50
2019-04-30T19:57:39.904Z,16.40
2019-04-30T20:00:09.358Z,16.70
2019-04-30T20:02:39.887Z,16.60
2019-04-30T20:05:09.039Z,16.40
2019-04-30T20:07:38.311Z,16.00
2019-04-30T20:10:08.907Z,15.80
2019-04-30T20:12:38.784Z,15.80
2019-04-30T20:15:17.171Z,15.60
2019-04-30T20:17:38.600Z,15.40
2019-04-30T20:20:08.962Z,15.20
2019-04-30T20:22:38.925Z,15.00
2019-04-30T20:25:09.146Z,15.30
2019-04-30T20:27:39.797Z,15.00
2019-04-30T20:30:09.595Z,15.20
2019-04-30T20:32:37.755Z,15.60
2019-04-30T20:35:09.725Z,15.50
2019-04-30T20:38:04.901Z,15.30
2019-04-30T20:40:43.271Z,15.90
2019-04-30T20:43:08.550Z,15.80
2019-04-30T20:45:36.833Z,15.50
2019-04-30T20:48:05.137Z,15.60
2019-04-30T20:50:33.571Z,15.60
2019-04-30T20:53:02.709Z,15.90
2019-04-30T20:55:38.804Z,15.60
2019-04-30T20:58:09.464Z,15.50
2019-04-30T21:00:37.840Z,15.70
2019-04-30T21:03:06.166Z,15.50
2019-04-30T21:05:34.322Z,15.90
2019-04-30T21:08:03.361Z,15.90
2019-04-30T21:10:31.341Z,15.40
2019-04-30T21:12:59.616Z,15.50
2019-04-30T21:15:29.537Z,15.30
2019-04-30T21:17:58.702Z,15.40
2019-04-30T21:20:28.855Z,15.20
2019-04-30T21:22:59.480Z,14.90
2019-04-30T21:25:28.973Z,15.10
2019-04-30T21:27:57.211Z,14.70
2019-04-30T21:30:25.503Z,15.00
2019-04-30T21:33:09.227Z,15.00
2019-04-30T21:35:44.246Z,15.10
2019-04-30T21:38:12.409Z,14.90
2019-04-30T21:40:40.409Z,14.60
2019-04-30T21:43:08.576Z,14.80
2019-04-30T21:45:36.529Z,15.30
2019-04-30T21:48:04.532Z,15.10
2019-04-30T21:50:32.626Z,14.90
2019-04-30T21:53:00.728Z,14.80
2019-04-30T21:55:29.601Z,15.20
2019-04-30T21:57:59.468Z,15.30
2019-04-30T22:00:46.501Z,15.10
2019-04-30T22:03:16.360Z,15.00
2019-04-30T22:05:45.737Z,14.90
2019-04-30T22:08:13.898Z,14.80
2019-04-30T22:10:41.913Z,14.60
2019-04-30T22:13:09.963Z,14.50
2019-04-30T22:15:37.922Z,14.50
2019-04-30T22:18:05.983Z,14.60
2019-04-30T22:20:34.058Z,14.50
2019-04-30T22:23:02.150Z,14.50
2019-04-30T22:25:30.187Z,14.50
2019-04-30T22:27:58.141Z,14.40
2019-04-30T22:30:27.395Z,14.40
2019-04-30T22:32:55.474Z,14.20
2019-04-30T22:36:01.166Z,14.20
2019-04-30T22:38:33.047Z,14.00
2019-04-30T22:41:01.016Z,14.00
2019-04-30T22:43:29.010Z,14.20
2019-04-30T22:46:02.511Z,14.00
2019-04-30T22:48:30.501Z,14.10
2019-04-30T22:50:58.438Z,14.10
2019-04-30T22:53:26.438Z,14.00
2019-04-30T22:55:54.416Z,14.10
2019-04-30T22:58:24.095Z,14.10
2019-04-30T23:00:58.263Z,14.20
2019-04-30T23:03:30.283Z,14.00
2019-04-30T23:05:58.466Z,14.20
2019-04-30T23:08:26.460Z,14.20
2019-04-30T23:10:54.550Z,14.20
2019-04-30T23:13:22.712Z,14.20
2019-04-30T23:15:54.082Z,14.20
2019-04-30T23:18:22.202Z,13.90
2019-04-30T23:20:50.437Z,14.00
2019-04-30T23:23:18.377Z,13.80
2019-04-30T23:25:46.438Z,13.80
2019-04-30T23:28:14.455Z,13.80
2019-04-30T23:30:42.463Z,13.80
2019-04-30T23:33:10.451Z,13.70
2019-04-30T23:35:38.402Z,13.80
2019-04-30T23:38:06.374Z,13.70
2019-04-30T23:40:53.900Z,13.60
2019-04-30T23:43:21.911Z,13.70
2019-04-30T23:45:49.844Z,13.60
2019-04-30T23:48:17.822Z,13.80
2019-04-30T23:50:45.789Z,13.70
2019-04-30T23:53:13.853Z,13.80
2019-04-30T23:55:41.826Z,13.50
2019-04-30T23:58:09.822Z,13.70
